createdAt,value
2018-10-19T00:02:16.963Z,10.65
2018-10-19T00:04:44.628Z,10.73
2018-10-19T00:07:13.256Z,10.65
2018-10-19T00:09:40.919Z,10.62
2018-10-19T00:12:09.712Z,10.65
2018-10-19T00:14:37.404Z,10.54
2018-10-19T00:17:05.832Z,10.55
2018-10-19T00:19:33.530Z,10.50
2018-10-19T00:22:01.148Z,10.48
2018-10-19T00:24:29.042Z,10.53
2018-10-19T00:26:57.143Z,10.45
2018-10-19T00:29:25.017Z,10.42
2018-10-19T00:31:55.419Z,10.39
2018-10-19T00:34:23.089Z,10.34
2018-10-19T00:36:50.965Z,10.31
2018-10-19T00:39:18.671Z,10.34
2018-10-19T00:41:46.267Z,10.49
2018-10-19T00:44:14.234Z,10.44
2018-10-19T00:46:42.322Z,10.49
2018-10-19T00:49:09.857Z,10.22
2018-10-19T00:51:37.919Z,10.38
2018-10-19T00:54:06.072Z,10.22
2018-10-19T00:56:34.278Z,10.35
2018-10-19T00:59:02.193Z,10.29
2018-10-19T01:01:29.760Z,10.23
2018-10-19T01:03:57.651Z,10.27
2018-10-19T01:06:26.240Z,10.05
2018-10-19T01:09:04.920Z,10.07
2018-10-19T01:11:33.916Z,10.23
2018-10-19T01:14:01.757Z,10.16
2018-10-19T01:16:30.220Z,10.03
2018-10-19T01:18:57.853Z,10.08
2018-10-19T01:21:25.500Z,10.16
2018-10-19T01:23:53.558Z,10.12
2018-10-19T01:26:22.725Z,10.00
2018-10-19T01:28:50.694Z,10.00
2018-10-19T01:31:18.880Z,10.04
2018-10-19T01:33:46.948Z,10.06
2018-10-19T01:36:15.912Z,10.04
2018-10-19T01:38:44.946Z,9.90
2018-10-19T01:41:12.791Z,10.02
2018-10-19T01:43:41.699Z,9.97
2018-10-19T01:46:09.448Z,10.01
2018-10-19T01:48:37.311Z,9.94
2018-10-19T01:51:06.512Z,10.02
2018-10-19T01:53:34.772Z,10.01
2018-10-19T01:56:03.364Z,9.90
2018-10-19T01:58:31.528Z,9.93
2018-10-19T02:01:01.659Z,9.88
2018-10-19T02:03:30.561Z,10.05
2018-10-19T02:05:59.269Z,10.05
2018-10-19T02:08:27.283Z,10.14
2018-10-19T02:10:55.287Z,10.18
2018-10-19T02:13:23.413Z,10.27
2018-10-19T02:15:51.330Z,10.30
2018-10-19T02:18:19.087Z,10.38
2018-10-19T02:20:46.945Z,10.26
2018-10-19T02:23:15.237Z,10.13
2018-10-19T02:25:42.950Z,10.18
2018-10-19T02:28:10.921Z,10.06
2018-10-19T02:30:42.759Z,10.06
2018-10-19T02:33:10.982Z,9.94
2018-10-19T02:35:39.796Z,9.79
2018-10-19T02:38:07.477Z,9.80
2018-10-19T02:40:35.456Z,9.84
2018-10-19T02:43:03.368Z,9.91
2018-10-19T02:45:33.767Z,9.85
2018-10-19T02:48:02.279Z,9.94
2018-10-19T02:50:30.102Z,9.95
2018-10-19T02:52:57.923Z,9.97
2018-10-19T02:55:25.628Z,10.03
2018-10-19T02:57:53.300Z,10.02
2018-10-19T03:00:21.235Z,10.02
2018-10-19T03:02:49.071Z,9.94
2018-10-19T03:05:17.012Z,9.96
2018-10-19T03:07:46.903Z,9.98
2018-10-19T03:10:14.654Z,10.07
2018-10-19T03:12:42.999Z,9.96
2018-10-19T03:15:10.899Z,9.86
2018-10-19T03:17:38.469Z,9.84
2018-10-19T03:20:07.170Z,9.65
2018-10-19T03:22:35.585Z,9.77
2018-10-19T03:25:04.589Z,9.83
2018-10-19T03:27:33.943Z,9.85
2018-10-19T03:30:01.714Z,9.89
2018-10-19T03:32:29.574Z,9.84
2018-10-19T03:34:57.605Z,9.84
2018-10-19T03:37:25.925Z,9.98
2018-10-19T03:39:53.691Z,9.95
2018-10-19T03:42:21.968Z,9.58
2018-10-19T03:44:50.754Z,9.54
2018-10-19T03:47:18.907Z,9.52
2018-10-19T03:49:46.995Z,9.69
2018-10-19T03:52:15.577Z,9.62
2018-10-19T03:54:43.577Z,9.50
2018-10-19T03:57:12.132Z,9.74
2018-10-19T03:59:41.009Z,9.74
2018-10-19T04:02:08.988Z,9.60
2018-10-19T04:04:36.887Z,9.65
2018-10-19T04:07:06.262Z,9.96
2018-10-19T04:09:34.749Z,9.69
2018-10-19T04:12:02.469Z,9.94
2018-10-19T04:14:31.428Z,9.92
2018-10-19T04:17:00.215Z,9.75
2018-10-19T04:19:28.092Z,9.49
2018-10-19T04:21:56.358Z,9.65
2018-10-19T04:24:24.383Z,9.47
2018-10-19T04:26:52.594Z,9.39
2018-10-19T04:29:20.737Z,9.54
2018-10-19T04:31:48.862Z,9.23
2018-10-19T04:34:17.212Z,9.42
2018-10-19T04:36:45.801Z,9.36
2018-10-19T04:39:14.566Z,9.44
2018-10-19T04:41:42.381Z,9.32
2018-10-19T04:44:10.233Z,9.36
2018-10-19T04:46:38.941Z,9.40
2018-10-19T04:49:07.184Z,9.23
2018-10-19T04:51:35.320Z,9.34
2018-10-19T04:54:04.396Z,9.36
2018-10-19T04:56:32.930Z,9.35
2018-10-19T04:59:01.518Z,9.41
2018-10-19T05:01:29.332Z,9.49
2018-10-19T05:03:57.661Z,9.25
2018-10-19T05:09:12.525Z,9.06
2018-10-19T05:11:41.982Z,9.24
2018-10-19T05:14:12.171Z,9.40
2018-10-19T05:16:41.401Z,9.17
2018-10-19T05:19:10.216Z,9.21
2018-10-19T05:21:38.835Z,9.34
2018-10-19T05:24:07.329Z,9.25
2018-10-19T05:29:17.187Z,9.32
2018-10-19T05:31:44.936Z,9.29
2018-10-19T05:34:12.910Z,9.24
2018-10-19T05:36:40.963Z,9.24
2018-10-19T05:39:10.702Z,9.39
2018-10-19T05:41:38.687Z,9.41
2018-10-19T05:44:07.436Z,9.22
2018-10-19T05:46:35.251Z,9.32
2018-10-19T05:49:03.282Z,9.43
2018-10-19T05:51:31.698Z,9.48
2018-10-19T05:54:05.535Z,9.47
2018-10-19T05:56:33.616Z,9.40
2018-10-19T05:59:01.941Z,9.29
2018-10-19T06:01:30.674Z,9.36
2018-10-19T06:03:58.724Z,9.20
2018-10-19T06:06:26.729Z,9.32
2018-10-19T06:08:56.842Z,9.30
2018-10-19T06:11:25.175Z,9.43
2018-10-19T06:13:53.770Z,9.60
2018-10-19T06:16:21.751Z,9.32
2018-10-19T06:21:52.033Z,9.22
2018-10-19T06:24:24.085Z,9.24
2018-10-19T06:26:53.883Z,9.40
2018-10-19T06:32:33.684Z,9.15
2018-10-19T06:35:02.864Z,9.21
2018-10-19T06:37:30.981Z,9.30
2018-10-19T06:39:58.950Z,9.43
2018-10-19T06:42:26.857Z,9.34
2018-10-19T06:44:55.328Z,9.44
2018-10-19T06:47:23.585Z,9.57
2018-10-19T06:49:51.708Z,9.58
2018-10-19T06:52:19.683Z,9.55
2018-10-19T06:54:47.453Z,9.58
2018-10-19T06:57:15.473Z,9.78
2018-10-19T06:59:43.204Z,9.76
2018-10-19T07:02:11.228Z,9.79
2018-10-19T07:04:39.174Z,9.83
2018-10-19T07:07:07.075Z,9.80
2018-10-19T07:09:35.172Z,9.90
2018-10-19T07:12:02.932Z,10.07
2018-10-19T07:14:30.444Z,10.13
2018-10-19T07:16:58.354Z,10.02
2018-10-19T07:19:26.005Z,10.03
2018-10-19T07:21:53.541Z,10.16
2018-10-19T07:24:21.378Z,10.33
2018-10-19T07:26:50.300Z,10.41
2018-10-19T07:29:18.057Z,10.44
2018-10-19T07:31:45.727Z,10.41
2018-10-19T07:34:13.429Z,10.29
2018-10-19T07:36:41.033Z,10.37
2018-10-19T07:39:09.233Z,10.45
2018-10-19T07:41:37.194Z,10.30
2018-10-19T07:44:05.421Z,10.49
2018-10-19T07:46:33.165Z,10.44
2018-10-19T07:49:00.646Z,10.45
2018-10-19T07:51:28.362Z,10.58
2018-10-19T07:53:55.967Z,10.61
2018-10-19T07:56:23.587Z,10.62
2018-10-19T07:58:51.143Z,10.89
2018-10-19T08:01:18.932Z,10.75
2018-10-19T08:03:46.666Z,11.03
2018-10-19T08:06:14.274Z,11.04
